createdAt,value
2018-06-19T00:00:15.402Z,51.80
2018-06-19T00:02:18.078Z,51.80
2018-06-19T00:04:20.769Z,51.70
2018-06-19T00:06:24.123Z,51.80
2018-06-19T00:08:27.498Z,51.80
2018-06-19T00:10:30.215Z,51.80
2018-06-19T00:12:32.798Z,51.80
2018-06-19T00:14:36.309Z,52.50
2018-06-19T00:16:39.676Z,52.00
2018-06-19T00:18:42.286Z,51.90
2018-06-19T00:20:44.882Z,52.00
2018-06-19T00:22:47.486Z,52.00
2018-06-19T00:24:50.929Z,52.10
2018-06-19T00:26:53.542Z,52.00
2018-06-19T00:28:56.243Z,52.00
2018-06-19T00:30:58.871Z,52.20
2018-06-19T00:33:01.457Z,52.20
2018-06-19T00:35:04.191Z,52.20
2018-06-19T00:37:07.564Z,52.40
2018-06-19T00:39:10.165Z,52.30
2018-06-19T00:41:12.790Z,52.30
2018-06-19T00:43:15.487Z,52.30
2018-06-19T00:45:19.611Z,52.40
2018-06-19T00:47:22.962Z,52.40
2018-06-19T00:49:25.610Z,52.40
2018-06-19T00:51:28.193Z,52.50
2018-06-19T00:53:30.781Z,52.50
2018-06-19T00:55:33.407Z,52.60
2018-06-19T00:57:36.854Z,52.80
2018-06-19T00:59:39.470Z,52.70
2018-06-19T01:01:42.830Z,52.80
2018-06-19T01:03:45.530Z,52.70
2018-06-19T01:05:49.654Z,52.80
2018-06-19T01:07:53.023Z,52.90
2018-06-19T01:09:55.634Z,52.80
2018-06-19T01:11:58.221Z,52.80
2018-06-19T01:14:00.861Z,52.80
2018-06-19T01:16:04.250Z,53.00
2018-06-19T01:18:07.606Z,53.10
2018-06-19T01:20:10.231Z,53.00
2018-06-19T01:22:12.834Z,53.70
2018-06-19T01:24:15.413Z,53.10
2018-06-19T01:26:18.056Z,53.10
2018-06-19T01:28:21.410Z,53.30
2018-06-19T01:30:36.178Z,53.30
2018-06-19T01:37:18.510Z,52.90
2018-06-19T01:41:47.923Z,55.20
2018-06-19T01:43:50.455Z,55.20
2018-06-19T01:45:53.036Z,54.90
2018-06-19T01:47:55.592Z,54.90
2018-06-19T01:49:58.151Z,54.80
2018-06-19T01:52:00.867Z,54.90
2018-06-19T01:54:03.520Z,54.90
2018-06-19T01:56:06.056Z,54.70
2018-06-19T01:58:09.400Z,54.60
2018-06-19T02:00:11.940Z,54.60
2018-06-19T02:02:14.505Z,54.60
2018-06-19T02:04:17.096Z,54.60
2018-06-19T02:06:19.681Z,54.50
2018-06-19T02:08:22.277Z,54.50
2018-06-19T02:10:25.140Z,54.50
2018-06-19T02:12:27.677Z,54.90
2018-06-19T02:14:30.285Z,54.50
2018-06-19T02:16:32.854Z,54.50
2018-06-19T02:18:35.392Z,54.60
2018-06-19T02:20:38.008Z,54.60
2018-06-19T02:22:40.680Z,54.60
2018-06-19T02:24:43.225Z,54.70
2018-06-19T02:26:45.823Z,54.70
2018-06-19T02:28:48.388Z,54.70
2018-06-19T02:30:50.995Z,54.80
2018-06-19T02:32:53.556Z,54.80
2018-06-19T02:34:56.387Z,54.80
2018-06-19T02:36:58.934Z,54.80
2018-06-19T02:39:01.478Z,54.90
2018-06-19T02:41:05.188Z,54.90
2018-06-19T02:43:07.844Z,54.90
2018-06-19T02:45:10.390Z,54.90
2018-06-19T02:47:12.989Z,54.90
2018-06-19T02:49:15.529Z,55.00
2018-06-19T02:51:18.146Z,55.00
2018-06-19T02:53:20.812Z,55.10
2018-06-19T02:55:23.396Z,55.10
2018-06-19T02:57:25.974Z,55.10
2018-06-19T02:59:28.580Z,55.20
2018-06-19T03:01:31.897Z,55.30
2018-06-19T03:03:34.441Z,55.20
2018-06-19T03:05:37.080Z,55.20
2018-06-19T03:07:39.652Z,55.20
2018-06-19T03:09:42.225Z,55.30
2018-06-19T03:11:44.912Z,55.30
2018-06-19T03:13:47.450Z,55.40
2018-06-19T03:15:49.992Z,55.40
2018-06-19T03:17:53.541Z,55.50
2018-06-19T03:19:56.085Z,55.50
2018-06-19T03:21:58.816Z,55.50
2018-06-19T03:24:01.690Z,55.50
2018-06-19T03:26:15.344Z,55.50
2018-06-19T03:37:18.901Z,55.60
2018-06-19T03:41:48.272Z,58.90
2018-06-19T03:43:50.943Z,58.30
2018-06-19T03:45:53.531Z,57.90
2018-06-19T03:47:56.099Z,57.90
2018-06-19T03:49:58.673Z,57.80
2018-06-19T03:52:01.221Z,57.70
2018-06-19T03:54:03.761Z,57.60
2018-06-19T03:56:07.220Z,57.40
2018-06-19T03:58:09.761Z,57.30
2018-06-19T04:00:12.353Z,57.20
2018-06-19T04:02:15.012Z,57.10
2018-06-19T04:04:17.557Z,57.10
2018-06-19T04:06:20.902Z,57.00
2018-06-19T04:08:23.471Z,56.90
2018-06-19T04:10:26.106Z,56.90
2018-06-19T04:12:28.617Z,56.90
2018-06-19T04:14:31.198Z,56.90
2018-06-19T04:16:33.741Z,56.90
2018-06-19T04:18:36.281Z,56.90
2018-06-19T04:20:39.622Z,56.90
2018-06-19T04:22:42.204Z,56.80
2018-06-19T04:24:44.749Z,56.80
2018-06-19T04:26:47.347Z,56.90
2018-06-19T04:28:49.921Z,56.90
2018-06-19T04:30:52.507Z,56.90
2018-06-19T04:32:55.168Z,56.90
2018-06-19T04:34:58.144Z,56.90
2018-06-19T04:37:00.728Z,56.90
2018-06-19T04:39:03.372Z,56.90
2018-06-19T04:41:05.909Z,57.50
2018-06-19T04:43:08.450Z,56.90
2018-06-19T04:45:11.162Z,57.00
2018-06-19T04:47:13.689Z,57.00
2018-06-19T04:49:16.273Z,57.00
2018-06-19T04:51:18.836Z,57.00
2018-06-19T04:53:21.437Z,57.10
2018-06-19T04:55:23.968Z,57.10
2018-06-19T04:57:26.667Z,57.20
2018-06-19T04:59:29.234Z,57.20
2018-06-19T05:01:31.843Z,57.20
2018-06-19T05:03:35.911Z,57.20
2018-06-19T05:05:38.452Z,57.20
2018-06-19T05:07:41.785Z,57.20
2018-06-19T05:09:44.463Z,57.20
2018-06-19T05:11:47.006Z,57.20
2018-06-19T05:13:49.649Z,57.30
2018-06-19T05:15:52.200Z,57.90
2018-06-19T05:17:54.797Z,57.30
2018-06-19T05:19:58.150Z,57.40
2018-06-19T05:22:00.723Z,57.30
2018-06-19T05:24:03.392Z,57.30
2018-06-19T05:26:05.973Z,57.30
2018-06-19T05:28:08.547Z,57.30
2018-06-19T05:30:11.158Z,57.40
2018-06-19T05:32:13.693Z,57.50
2018-06-19T05:34:17.056Z,57.60
2018-06-19T05:36:19.641Z,57.50
2018-06-19T05:38:22.272Z,57.60
2018-06-19T05:40:24.808Z,57.60
2018-06-19T05:42:27.380Z,57.60
2018-06-19T05:44:29.934Z,57.70
2018-06-19T05:46:32.668Z,57.70
2018-06-19T05:48:35.181Z,57.70
2018-06-19T05:50:37.732Z,57.60
2018-06-19T05:52:40.326Z,57.60
2018-06-19T05:54:43.609Z,57.60
2018-06-19T05:56:46.210Z,57.60
2018-06-19T05:58:48.764Z,57.60
2018-06-19T06:00:51.358Z,57.70
2018-06-19T06:02:53.897Z,57.70
2018-06-19T06:04:56.517Z,57.60
2018-06-19T06:06:59.052Z,57.60
2018-06-19T06:09:01.659Z,57.50
2018-06-19T06:11:04.211Z,57.40
2018-06-19T06:13:06.780Z,57.30
2018-06-19T06:15:10.067Z,57.10
2018-06-19T06:17:12.660Z,57.10
2018-06-19T06:19:15.211Z,57.10
2018-06-19T06:21:17.784Z,57.10
2018-06-19T06:23:20.380Z,57.10
2018-06-19T06:25:22.964Z,56.90
2018-06-19T06:27:25.629Z,57.30
2018-06-19T06:29:28.215Z,56.50
2018-06-19T06:31:30.800Z,56.50
2018-06-19T06:33:33.346Z,56.40
2018-06-19T06:35:36.078Z,56.20
2018-06-19T06:37:39.412Z,55.70
2018-06-19T06:39:41.988Z,55.50
2018-06-19T06:41:44.559Z,55.50
2018-06-19T06:43:47.152Z,55.40
2018-06-19T06:45:49.713Z,55.30
2018-06-19T06:47:52.264Z,55.30
2018-06-19T06:49:54.856Z,55.20
2018-06-19T06:51:57.404Z,55.20
2018-06-19T06:54:00.009Z,55.20
2018-06-19T06:56:02.558Z,55.20
2018-06-19T06:58:05.152Z,55.20
2018-06-19T07:00:07.824Z,55.20
2018-06-19T07:02:10.405Z,55.20
2018-06-19T07:04:12.981Z,55.20
2018-06-19T07:06:15.542Z,55.00
2018-06-19T07:08:18.266Z,55.10
2018-06-19T07:10:21.637Z,54.90
2018-06-19T07:12:25.728Z,54.70
2018-06-19T07:14:28.309Z,54.60
2018-06-19T07:16:30.879Z,54.70
2018-06-19T07:18:33.449Z,54.50
2018-06-19T07:20:36.016Z,54.50
2018-06-19T07:22:38.588Z,54.50
2018-06-19T07:24:41.273Z,54.40
2018-06-19T07:26:43.824Z,54.30
2018-06-19T07:28:46.417Z,54.10
2018-06-19T07:30:49.101Z,54.20
2018-06-19T07:32:51.557Z,54.30
2018-06-19T07:34:54.093Z,54.30
2018-06-19T07:36:57.421Z,54.10
2018-06-19T07:38:59.995Z,54.10
2018-06-19T07:41:02.570Z,53.90
2018-06-19T07:43:05.249Z,53.90
2018-06-19T07:45:07.820Z,54.00
2018-06-19T07:47:10.526Z,53.90
2018-06-19T07:49:13.170Z,53.70
2018-06-19T07:51:15.758Z,53.60
2018-06-19T07:53:18.347Z,53.60
2018-06-19T07:55:21.897Z,53.60
2018-06-19T07:57:24.551Z,53.60
2018-06-19T07:59:27.129Z,53.60
2018-06-19T08:01:30.501Z,53.40
2018-06-19T08:03:33.036Z,53.40
2018-06-19T08:05:35.576Z,53.20
2018-06-19T08:07:38.318Z,53.30
2018-06-19T08:09:40.832Z,53.20
2018-06-19T08:11:43.433Z,53.10
2018-06-19T08:13:46.009Z,53.20
2018-06-19T08:15:48.553Z,52.80
2018-06-19T08:17:51.097Z,52.50
2018-06-19T08:19:54.433Z,51.70
2018-06-19T08:21:57.035Z,51.70
2018-06-19T08:23:59.584Z,51.50
2018-06-19T08:26:02.280Z,51.40
2018-06-19T08:28:04.833Z,51.50
2018-06-19T08:30:07.404Z,51.40
2018-06-19T08:32:09.982Z,51.50
2018-06-19T08:34:12.521Z,51.60
2018-06-19T08:36:15.147Z,51.90
2018-06-19T08:38:17.931Z,51.90
2018-06-19T08:40:20.522Z,52.10
2018-06-19T08:42:23.040Z,52.10
2018-06-19T08:44:25.936Z,52.20
2018-06-19T08:46:28.512Z,52.00
2018-06-19T08:48:31.915Z,51.70
2018-06-19T08:50:34.505Z,51.60
2018-06-19T08:52:37.041Z,51.50
2018-06-19T08:54:39.584Z,51.40
2018-06-19T08:56:42.343Z,51.40
2018-06-19T08:58:46.374Z,51.60
2018-06-19T09:00:48.988Z,51.40
2018-06-19T09:02:51.653Z,51.60
2018-06-19T09:04:54.229Z,51.50
2018-06-19T09:06:56.806Z,51.30
2018-06-19T09:08:59.420Z,51.10
2018-06-19T09:11:02.735Z,51.70
2018-06-19T09:13:05.342Z,51.40
2018-06-19T09:15:08.227Z,51.40
2018-06-19T09:17:10.847Z,51.30
2018-06-19T09:19:13.387Z,51.10
2018-06-19T09:21:15.958Z,51.00
2018-06-19T09:23:18.519Z,51.10
2018-06-19T09:25:21.099Z,51.20
2018-06-19T09:27:23.764Z,51.30
2018-06-19T09:29:26.313Z,51.50
2018-06-19T09:31:29.016Z,51.70
2018-06-19T09:33:31.527Z,51.70
2018-06-19T09:35:34.160Z,51.60
2018-06-19T09:37:36.885Z,51.60
2018-06-19T09:39:39.522Z,51.50
2018-06-19T09:41:42.052Z,51.60
2018-06-19T09:43:45.352Z,51.60
2018-06-19T09:45:47.953Z,51.40
2018-06-19T09:47:50.497Z,51.30
2018-06-19T09:49:53.143Z,51.40
2018-06-19T09:51:55.777Z,51.50
2018-06-19T09:53:58.478Z,51.60
2018-06-19T09:56:00.977Z,51.60
2018-06-19T09:58:04.481Z,51.40
2018-06-19T10:00:07.089Z,51.40
2018-06-19T10:02:09.632Z,51.40
2018-06-19T10:04:12.245Z,51.40
2018-06-19T10:06:14.852Z,51.50
2018-06-19T10:08:17.425Z,51.50
2018-06-19T10:10:20.077Z,51.50
2018-06-19T10:12:23.452Z,51.50
2018-06-19T10:14:25.989Z,51.50
2018-06-19T10:16:28.640Z,51.40
2018-06-19T10:18:31.179Z,51.60
2018-06-19T10:20:33.744Z,51.90
2018-06-19T10:22:36.305Z,52.30
2018-06-19T10:24:38.853Z,52.60
2018-06-19T10:26:41.392Z,52.70
2018-06-19T10:28:44.146Z,52.40
2018-06-19T10:30:46.816Z,52.60
2018-06-19T10:32:49.356Z,52.70
2018-06-19T10:34:52.065Z,52.80
2018-06-19T10:36:54.683Z,52.70
2018-06-19T10:38:57.201Z,52.60
2018-06-19T10:40:59.793Z,52.70
2018-06-19T10:43:02.403Z,52.80
2018-06-19T10:45:05.733Z,53.00
2018-06-19T10:47:08.287Z,53.00
2018-06-19T10:49:10.912Z,53.50
2018-06-19T10:51:13.581Z,53.50
2018-06-19T10:53:16.148Z,53.10
2018-06-19T10:55:18.693Z,52.90
2018-06-19T10:57:21.339Z,52.90
2018-06-19T10:59:23.978Z,52.90
2018-06-19T11:01:26.515Z,52.90
2018-06-19T11:03:29.163Z,52.90
2018-06-19T11:05:31.939Z,53.00
2018-06-19T11:07:34.472Z,53.20
2018-06-19T11:09:37.148Z,53.10
2018-06-19T11:11:39.853Z,52.90
2018-06-19T11:13:42.389Z,52.90
2018-06-19T11:15:44.968Z,52.70
2018-06-19T11:17:47.564Z,52.90
2018-06-19T11:19:50.216Z,52.80
2018-06-19T11:21:52.781Z,52.90
2018-06-19T11:23:55.470Z,52.80
2018-06-19T11:25:58.143Z,52.30
2018-06-19T11:28:00.791Z,52.20
2018-06-19T11:30:03.537Z,52.00
2018-06-19T11:32:07.691Z,51.70
2018-06-19T11:34:10.248Z,52.30
2018-06-19T11:36:12.876Z,51.70
2018-06-19T11:38:15.387Z,51.60
2018-06-19T11:40:18.042Z,51.90
2018-06-19T11:42:20.672Z,51.90
2018-06-19T11:44:23.221Z,51.70
2018-06-19T11:46:25.834Z,52.60
2018-06-19T11:48:28.693Z,52.80
2018-06-19T11:50:31.276Z,52.40
2018-06-19T11:52:33.860Z,52.30
2018-06-19T11:54:36.468Z,52.00
2018-06-19T11:56:38.997Z,52.30
2018-06-19T11:58:41.569Z,52.30
2018-06-19T12:00:44.139Z,52.50
2018-06-19T12:02:46.824Z,53.20
2018-06-19T12:04:49.435Z,53.20
2018-06-19T12:06:52.088Z,52.60
2018-06-19T12:08:54.752Z,52.20
2018-06-19T12:10:57.289Z,51.80
2018-06-19T12:12:59.900Z,51.60
2018-06-19T12:15:02.453Z,51.70
2018-06-19T12:17:05.036Z,51.80
2018-06-19T12:19:07.606Z,51.50
2018-06-19T12:21:10.144Z,51.10
2018-06-19T12:23:12.800Z,51.30
2018-06-19T12:25:15.428Z,51.70
2018-06-19T12:27:17.977Z,52.20
2018-06-19T12:29:20.522Z,52.10
2018-06-19T12:31:23.876Z,52.10
2018-06-19T12:33:26.444Z,51.80
2018-06-19T12:35:28.990Z,52.30
2018-06-19T12:37:31.700Z,51.60
2018-06-19T12:39:34.288Z,51.30
2018-06-19T12:41:36.853Z,51.00
2018-06-19T12:43:39.729Z,50.60
2018-06-19T12:45:42.263Z,50.40
2018-06-19T12:47:44.911Z,50.20
2018-06-19T12:49:47.548Z,49.90
2018-06-19T12:52:11.808Z,49.70
2018-06-19T12:54:14.355Z,49.50
2018-06-19T12:56:18.001Z,49.90
2018-06-19T12:58:20.554Z,49.80
2018-06-19T13:00:23.108Z,49.80
2018-06-19T13:02:25.732Z,49.70
2018-06-19T13:04:40.130Z,49.50
2018-06-19T13:06:43.438Z,49.00
2018-06-19T13:08:46.012Z,48.90
2018-06-19T13:10:48.561Z,48.80
2018-06-19T13:13:06.753Z,48.80
2018-06-19T13:15:10.085Z,48.90
2018-06-19T13:17:25.470Z,49.50
2018-06-19T13:19:39.985Z,49.40
2018-06-19T13:21:42.544Z,49.40
2018-06-19T13:23:45.936Z,49.70
2018-06-19T13:25:48.490Z,49.60
2018-06-19T13:27:51.048Z,49.70
2018-06-19T13:30:05.528Z,49.50
2018-06-19T13:32:08.081Z,49.10
2018-06-19T13:34:10.649Z,49.10
2018-06-19T13:36:13.266Z,49.00
2018-06-19T13:38:15.817Z,48.80
2018-06-19T13:40:44.876Z,48.80
2018-06-19T13:43:09.090Z,48.50
2018-06-19T13:45:11.654Z,48.10
2018-06-19T13:47:15.478Z,48.10
2018-06-19T13:49:18.153Z,48.30
2018-06-19T13:51:20.810Z,48.00
2018-06-19T13:53:24.420Z,47.70
2018-06-19T13:55:34.604Z,47.70
2018-06-19T13:57:49.170Z,47.80
2018-06-19T13:59:52.013Z,47.60
2018-06-19T14:01:54.799Z,47.40
2018-06-19T14:03:57.238Z,47.20
2018-06-19T14:05:59.827Z,47.60
2018-06-19T14:08:02.408Z,47.00
2018-06-19T14:10:24.727Z,47.10
2018-06-19T14:12:27.305Z,47.30
2018-06-19T14:14:29.893Z,47.40
2018-06-19T14:16:32.461Z,47.40
2018-06-19T14:18:35.190Z,47.30
2018-06-19T14:20:37.724Z,47.30
2018-06-19T14:22:40.285Z,47.30
2018-06-19T14:24:42.845Z,47.20
2018-06-19T14:26:45.389Z,47.20
2018-06-19T14:28:48.707Z,47.70
2018-06-19T14:30:51.600Z,47.70
2018-06-19T14:32:54.196Z,47.70
2018-06-19T14:34:56.789Z,47.90
2018-06-19T14:36:59.521Z,48.30
2018-06-19T14:39:02.130Z,48.20
2018-06-19T14:41:04.652Z,48.10
2018-06-19T14:43:07.247Z,47.90
2018-06-19T14:45:09.789Z,47.90
2018-06-19T14:47:12.388Z,48.30
2018-06-19T14:49:14.959Z,48.20
2018-06-19T14:51:17.508Z,48.00
2018-06-19T14:53:20.155Z,48.10
2018-06-19T14:55:22.790Z,48.20
2018-06-19T14:57:25.408Z,48.20
2018-06-19T14:59:27.954Z,48.30
2018-06-19T15:01:30.511Z,48.30
2018-06-19T15:03:33.053Z,48.30
2018-06-19T15:05:35.877Z,48.70
2018-06-19T15:07:38.436Z,48.80
2018-06-19T15:09:40.981Z,48.60
2018-06-19T15:11:43.585Z,48.40
2018-06-19T15:13:46.188Z,48.30
2018-06-19T15:15:48.712Z,48.20
2018-06-19T15:17:51.304Z,48.20
2018-06-19T15:19:53.984Z,48.20
2018-06-19T15:21:56.533Z,48.20
2018-06-19T15:23:59.124Z,48.40
2018-06-19T15:26:01.747Z,48.10
2018-06-19T15:28:05.849Z,48.00
2018-06-19T15:30:08.382Z,48.00
2018-06-19T15:32:10.941Z,48.20
2018-06-19T15:34:13.492Z,48.20
2018-06-19T15:36:16.097Z,48.40
2018-06-19T15:38:18.668Z,48.40
2018-06-19T15:40:21.260Z,48.30
2018-06-19T15:42:23.821Z,48.30
2018-06-19T15:44:26.383Z,48.60
2018-06-19T15:46:28.968Z,48.80
2018-06-19T15:48:31.521Z,48.60
2018-06-19T15:50:34.440Z,48.80
2018-06-19T15:52:37.043Z,48.70
2018-06-19T15:54:39.601Z,48.50
2018-06-19T15:56:42.464Z,48.50
2018-06-19T15:58:45.014Z,48.40
2018-06-19T16:00:47.544Z,48.70
2018-06-19T16:02:50.940Z,49.10
2018-06-19T16:04:54.293Z,48.70
2018-06-19T16:06:56.820Z,48.60
2018-06-19T16:08:59.430Z,48.50
2018-06-19T16:11:01.974Z,48.30
2018-06-19T16:13:04.568Z,48.20
2018-06-19T16:15:07.158Z,48.20
2018-06-19T16:17:09.716Z,48.40
2018-06-19T16:19:12.260Z,48.40
2018-06-19T16:21:14.872Z,48.30
2018-06-19T16:23:17.392Z,48.10
2018-06-19T16:25:20.705Z,47.90
2018-06-19T16:27:23.404Z,47.90
2018-06-19T16:29:25.951Z,47.90
2018-06-19T16:31:28.561Z,48.10
2018-06-19T16:33:31.248Z,48.10
2018-06-19T16:35:33.840Z,48.00
2018-06-19T16:37:36.376Z,48.00
2018-06-19T16:39:38.947Z,48.10
2018-06-19T16:41:41.568Z,48.20
2018-06-19T16:43:44.088Z,48.10
2018-06-19T16:45:47.088Z,48.10
2018-06-19T16:47:49.628Z,48.20
2018-06-19T16:49:52.237Z,48.40
2018-06-19T16:51:55.109Z,48.50
2018-06-19T16:53:57.696Z,48.40
2018-06-19T16:56:00.257Z,48.50
2018-06-19T16:58:02.848Z,49.00
2018-06-19T17:00:05.417Z,48.90
2018-06-19T17:02:07.967Z,48.90
2018-06-19T17:04:10.573Z,48.80
2018-06-19T17:06:13.112Z,49.00
2018-06-19T17:08:15.661Z,49.20
2018-06-19T17:10:18.372Z,49.50
2018-06-19T17:12:20.952Z,49.80
2018-06-19T17:14:23.521Z,49.80
2018-06-19T17:16:26.196Z,49.90
2018-06-19T17:18:28.750Z,49.60
2018-06-19T17:20:31.336Z,49.30
2018-06-19T17:22:33.956Z,49.00
2018-06-19T17:24:36.476Z,48.80
2018-06-19T17:26:39.053Z,48.70
2018-06-19T17:28:41.636Z,48.70
2018-06-19T17:30:44.193Z,48.90
2018-06-19T17:32:46.748Z,49.00
2018-06-19T17:34:49.336Z,48.90
2018-06-19T17:36:53.504Z,49.40
2018-06-19T17:38:56.030Z,49.30
2018-06-19T17:40:58.611Z,49.10
2018-06-19T17:43:01.184Z,49.00
2018-06-19T17:45:03.720Z,49.00
2018-06-19T17:47:06.298Z,48.90
2018-06-19T17:49:08.838Z,49.00
2018-06-19T17:51:12.159Z,49.00
2018-06-19T17:53:14.770Z,49.30
2018-06-19T17:55:19.168Z,49.10
2018-06-19T17:57:21.797Z,48.80
2018-06-19T17:59:24.437Z,48.80
2018-06-19T18:01:27.012Z,48.90
2018-06-19T18:03:29.582Z,48.90
2018-06-19T18:05:32.145Z,48.90
2018-06-19T18:07:34.684Z,48.90
2018-06-19T18:09:38.020Z,48.80
2018-06-19T18:11:40.647Z,48.70
2018-06-19T18:13:43.953Z,49.30
2018-06-19T18:15:46.561Z,49.20
2018-06-19T18:17:49.144Z,49.20
2018-06-19T18:19:51.676Z,49.20
2018-06-19T18:21:54.216Z,49.50
2018-06-19T18:23:57.776Z,49.80
2018-06-19T18:26:00.431Z,49.90
2018-06-19T18:28:03.028Z,50.30
2018-06-19T18:30:05.611Z,50.80
2018-06-19T18:32:08.153Z,50.90
2018-06-19T18:34:10.783Z,51.10
2018-06-19T18:36:13.420Z,51.50
2018-06-19T18:38:15.969Z,51.50
2018-06-19T18:40:18.604Z,51.20
2018-06-19T18:42:21.280Z,51.10
2018-06-19T18:44:23.829Z,51.00
2018-06-19T18:46:27.184Z,51.10
2018-06-19T18:48:29.780Z,51.10
2018-06-19T18:50:32.328Z,51.30
2018-06-19T18:52:34.941Z,51.40
2018-06-19T18:54:37.646Z,51.60
2018-06-19T18:56:40.196Z,51.90
2018-06-19T18:58:42.764Z,52.00
2018-06-19T19:00:45.320Z,52.00
2018-06-19T19:02:47.874Z,52.10
2018-06-19T19:04:50.424Z,52.20
2018-06-19T19:06:53.748Z,52.10
2018-06-19T19:08:56.289Z,52.00
2018-06-19T19:10:59.630Z,52.30
2018-06-19T19:13:02.211Z,52.20
2018-06-19T19:15:04.754Z,52.40
2018-06-19T19:17:23.100Z,52.50
2018-06-19T19:19:26.017Z,52.70
2018-06-19T19:21:28.560Z,52.90
2018-06-19T19:23:31.100Z,53.20
2018-06-19T19:25:33.705Z,53.40
2018-06-19T19:27:55.809Z,53.70
2018-06-19T19:29:59.109Z,53.60
2018-06-19T19:32:01.811Z,53.50
2018-06-19T19:34:04.360Z,53.80
2018-06-19T19:36:06.917Z,54.00
2018-06-19T19:38:26.070Z,54.50
2018-06-19T19:40:29.386Z,54.40
2018-06-19T19:42:31.964Z,54.40
2018-06-19T19:44:35.318Z,54.40
2018-06-19T19:46:37.844Z,54.40
2018-06-19T19:48:55.278Z,54.30
2018-06-19T19:50:57.857Z,54.20
2018-06-19T19:53:00.408Z,54.10
2018-06-19T19:55:02.992Z,54.10
2018-06-19T19:57:25.504Z,54.10
2018-06-19T19:59:28.048Z,54.20
2018-06-19T20:01:31.409Z,54.30
2018-06-19T20:03:34.073Z,54.20
2018-06-19T20:05:36.617Z,54.40
2018-06-19T20:07:39.262Z,54.50
2018-06-19T20:09:41.868Z,54.60
2018-06-19T20:11:44.414Z,55.20
2018-06-19T20:13:47.725Z,54.60
2018-06-19T20:15:50.288Z,54.50
2018-06-19T20:17:53.629Z,54.50
2018-06-19T20:19:56.218Z,54.50
2018-06-19T20:21:58.976Z,54.60
2018-06-19T20:24:01.549Z,54.70
2018-06-19T20:26:04.912Z,54.80
2018-06-19T20:28:07.519Z,54.80
2018-06-19T20:30:10.084Z,54.90
2018-06-19T20:32:12.629Z,54.90
2018-06-19T20:34:15.248Z,54.90
2018-06-19T20:36:17.776Z,55.00
2018-06-19T20:38:20.343Z,55.00
2018-06-19T20:40:22.905Z,55.00
2018-06-19T20:42:26.219Z,55.00
2018-06-19T20:44:28.818Z,55.00
2018-06-19T20:46:31.384Z,55.00
2018-06-19T20:48:33.953Z,55.10
2018-06-19T20:50:36.533Z,55.00
2018-06-19T20:52:39.228Z,55.20
2018-06-19T20:54:41.779Z,55.50
2018-06-19T20:56:44.365Z,55.50
2018-06-19T20:58:47.240Z,55.50
2018-06-19T21:00:49.811Z,55.60
2018-06-19T21:02:52.498Z,55.50
2018-06-19T21:04:55.156Z,55.50
2018-06-19T21:06:57.709Z,55.50
2018-06-19T21:09:00.316Z,55.40
2018-06-19T21:11:02.887Z,55.30
2018-06-19T21:13:06.281Z,55.20
2018-06-19T21:15:08.847Z,55.10
2018-06-19T21:17:11.444Z,55.00
2018-06-19T21:19:14.001Z,55.00
2018-06-19T21:21:16.543Z,54.90
2018-06-19T21:23:19.100Z,54.90
2018-06-19T21:25:22.448Z,54.90
2018-06-19T21:27:25.024Z,54.80
2018-06-19T21:29:27.608Z,54.90
2018-06-19T21:31:30.164Z,54.80
2018-06-19T21:33:32.704Z,54.80
2018-06-19T21:35:35.605Z,54.90
2018-06-19T21:37:38.181Z,54.90
2018-06-19T21:39:40.874Z,54.90
2018-06-19T21:41:43.573Z,54.90
2018-06-19T21:43:46.122Z,54.90
2018-06-19T21:45:48.722Z,54.90
2018-06-19T21:47:51.398Z,55.00
2018-06-19T21:49:53.931Z,54.90
2018-06-19T21:51:56.513Z,54.80
2018-06-19T21:53:59.088Z,54.90
2018-06-19T21:56:01.661Z,54.90
2018-06-19T21:58:04.226Z,54.80
2018-06-19T22:00:06.797Z,55.00
2018-06-19T22:02:09.369Z,54.90
2018-06-19T22:04:12.752Z,54.90
2018-06-19T22:06:15.328Z,54.90
2018-06-19T22:08:17.868Z,54.90
2018-06-19T22:10:20.404Z,54.90
2018-06-19T22:12:23.045Z,55.00
2018-06-19T22:14:25.624Z,55.00
2018-06-19T22:16:28.173Z,55.10
2018-06-19T22:18:31.073Z,55.10
2018-06-19T22:20:33.653Z,55.20
2018-06-19T22:22:36.203Z,55.20
2018-06-19T22:24:38.766Z,55.20
2018-06-19T22:26:41.323Z,55.20
2018-06-19T22:28:44.668Z,55.30
2018-06-19T22:30:47.369Z,55.20
2018-06-19T22:32:49.898Z,55.20
2018-06-19T22:34:52.492Z,55.20
2018-06-19T22:36:55.058Z,55.20
2018-06-19T22:38:57.648Z,55.20
2018-06-19T22:41:00.195Z,55.20
2018-06-19T22:43:02.812Z,55.20
2018-06-19T22:45:05.457Z,55.20
2018-06-19T22:47:08.048Z,55.20
2018-06-19T22:49:10.634Z,55.20
2018-06-19T22:51:13.281Z,55.20
2018-06-19T22:53:15.884Z,55.20
2018-06-19T22:55:18.630Z,55.20
2018-06-19T22:57:21.205Z,55.30
2018-06-19T22:59:23.779Z,55.30
2018-06-19T23:01:26.368Z,55.40
2018-06-19T23:03:28.911Z,55.40
2018-06-19T23:05:31.444Z,55.40
2018-06-19T23:07:34.780Z,55.50
2018-06-19T23:09:37.360Z,55.40
2018-06-19T23:11:39.961Z,55.40
2018-06-19T23:13:42.536Z,55.50
2018-06-19T23:15:45.127Z,55.40
2018-06-19T23:17:47.629Z,55.50
2018-06-19T23:19:50.233Z,55.50
2018-06-19T23:21:52.823Z,55.50
2018-06-19T23:23:55.381Z,55.60
2018-06-19T23:25:58.064Z,55.60
2018-06-19T23:28:00.604Z,55.60
2018-06-19T23:30:03.223Z,55.60
2018-06-19T23:32:05.872Z,55.70
2018-06-19T23:34:08.420Z,55.80
2018-06-19T23:36:10.964Z,55.90
2018-06-19T23:38:13.597Z,56.00
2018-06-19T23:40:16.132Z,56.10
2018-06-19T23:42:18.852Z,56.10
2018-06-19T23:44:21.516Z,56.20
2018-06-19T23:46:24.095Z,56.10
2018-06-19T23:48:26.637Z,56.30
2018-06-19T23:50:29.203Z,56.30
2018-06-19T23:52:32.537Z,56.40
2018-06-19T23:54:35.084Z,56.30
2018-06-19T23:56:37.648Z,56.40
2018-06-19T23:58:40.295Z,56.40
